Arden, New York
Current Conditions -  °F | °C
As of 1:45 PM on Tuesday 21 Oct 2014 (Local Time) from KSWF Reporting Station
Light Rain Light Rain  
Wind Chill: 54°   Ceiling: 900
Heat Index: 54°   Visibility: 5mi
Dew Point: 52°   Wind: 7mph
Humidity: 94%   Direction: 60°ENE
Pressure: 29.89"   Gusts: NA
Location:  41.27°N, 74.15°W
Report Text: KSWF 211745Z 06006KT 5SM -RA BR BKN009 OVC050 12/11 A2989
Loading
Personal Weather Stations






























Interactive Weather Map
Tropical Storm Tracking
New forecast layout! Learn more

10-Day Weather Forecast

Advertisements
Track Severe Weather on mobile